LWSK/SKP METAR and TAF weather

Enter ICAO airport designator
Station Type Date Time Source
LWSK METAR 2021/06/22 22:30 UTC NOAA

LWSK 222230Z 00000KT CAVOK 22/19 Q1014 NOSIG


Station Type Date Time Source
LWSK Decoded METAR 2021/06/22 22:30 UTC NOAA

Skopje-Petrovec, Macedonia, The Republic of (LWSK) 41-58N 021-39E 239M
Jun 22, 2021 - 06:30 PM EDT / 2021.06.22 2230 UTC
Wind: Calm:0
Visibility: greater than 7 mile(s):0
Temperature: 71 F (22 C)
Dew Point: 66 F (19 C)
Relative Humidity: 83%
Pressure (altimeter): 29.94 in. Hg (1014 hPa)
ob: LWSK 222230Z 00000KT CAVOK 22/19 Q1014 NOSIG
cycle: 22

Station Type Date Time Source
LWSK TAF 2021/06/22 21:48 UTC NOAA

TAF LWSK 222040Z 2221/2321 VRB02KT CAVOK
TEMPO 2312/2318 34012KT

Example: see airport list